sensor_id;sensor_type;location;lat;lon;timestamp;temperature;humidity
8103;DHT22;4094;49.948;11.574;2023-03-11T00:01:10;7.00;61.10
8103;DHT22;4094;49.948;11.574;2023-03-11T00:03:40;7.00;61.40
8103;DHT22;4094;49.948;11.574;2023-03-11T00:06:09;7.00;63.20
8103;DHT22;4094;49.948;11.574;2023-03-11T00:08:38;7.00;63.30
8103;DHT22;4094;49.948;11.574;2023-03-11T00:11:07;7.00;63.20
8103;DHT22;4094;49.948;11.574;2023-03-11T00:13:38;7.00;62.90
8103;DHT22;4094;49.948;11.574;2023-03-11T00:16:10;7.00;62.90
8103;DHT22;4094;49.948;11.574;2023-03-11T00:18:39;7.00;62.80
8103;DHT22;4094;49.948;11.574;2023-03-11T00:21:13;6.90;62.70
8103;DHT22;4094;49.948;11.574;2023-03-11T00:23:43;6.90;63.10
8103;DHT22;4094;49.948;11.574;2023-03-11T00:26:13;6.90;63.10
8103;DHT22;4094;49.948;11.574;2023-03-11T00:28:41;6.90;63.90
8103;DHT22;4094;49.948;11.574;2023-03-11T00:31:12;6.90;63.10
8103;DHT22;4094;49.948;11.574;2023-03-11T00:33:41;6.90;63.00
8103;DHT22;4094;49.948;11.574;2023-03-11T00:36:20;6.90;62.70
8103;DHT22;4094;49.948;11.574;2023-03-11T00:38:50;6.90;62.70
8103;DHT22;4094;49.948;11.574;2023-03-11T00:41:19;6.90;62.10
8103;DHT22;4094;49.948;11.574;2023-03-11T00:43:50;6.90;62.70
8103;DHT22;4094;49.948;11.574;2023-03-11T00:46:20;6.80;62.70
8103;DHT22;4094;49.948;11.574;2023-03-11T00:48:50;6.80;63.30
8103;DHT22;4094;49.948;11.574;2023-03-11T00:51:18;6.80;62.80
8103;DHT22;4094;49.948;11.574;2023-03-11T00:53:47;6.80;62.60
8103;DHT22;4094;49.948;11.574;2023-03-11T00:56:17;6.80;62.30
8103;DHT22;4094;49.948;11.574;2023-03-11T00:58:46;6.80;62.40
8103;DHT22;4094;49.948;11.574;2023-03-11T01:01:16;6.70;61.70
8103;DHT22;4094;49.948;11.574;2023-03-11T01:03:48;6.70;60.70
8103;DHT22;4094;49.948;11.574;2023-03-11T01:06:17;6.70;61.10
8103;DHT22;4094;49.948;11.574;2023-03-11T01:08:46;6.70;61.40
8103;DHT22;4094;49.948;11.574;2023-03-11T01:11:16;6.70;62.10
8103;DHT22;4094;49.948;11.574;2023-03-11T01:13:45;6.60;62.30
8103;DHT22;4094;49.948;11.574;2023-03-11T01:16:14;6.60;61.50
8103;DHT22;4094;49.948;11.574;2023-03-11T01:18:43;6.60;61.60
8103;DHT22;4094;49.948;11.574;2023-03-11T01:21:14;6.60;60.70
8103;DHT22;4094;49.948;11.574;2023-03-11T01:23:42;6.60;60.40
8103;DHT22;4094;49.948;11.574;2023-03-11T01:26:11;6.60;60.60
8103;DHT22;4094;49.948;11.574;2023-03-11T01:28:41;6.60;61.70
8103;DHT22;4094;49.948;11.574;2023-03-11T01:31:10;6.60;61.60
8103;DHT22;4094;49.948;11.574;2023-03-11T01:33:39;6.60;61.50
8103;DHT22;4094;49.948;11.574;2023-03-11T01:36:08;6.60;61.50
8103;DHT22;4094;49.948;11.574;2023-03-11T01:38:38;6.60;61.20
8103;DHT22;4094;49.948;11.574;2023-03-11T01:41:08;6.50;59.70
8103;DHT22;4094;49.948;11.574;2023-03-11T01:43:50;6.50;59.80
8103;DHT22;4094;49.948;11.574;2023-03-11T01:46:25;6.50;60.00
8103;DHT22;4094;49.948;11.574;2023-03-11T01:48:56;6.40;60.50
8103;DHT22;4094;49.948;11.574;2023-03-11T01:51:30;6.40;61.50
8103;DHT22;4094;49.948;11.574;2023-03-11T01:54:03;6.50;60.80
8103;DHT22;4094;49.948;11.574;2023-03-11T01:56:33;6.50;60.50
8103;DHT22;4094;49.948;11.574;2023-03-11T01:59:03;6.50;60.30
8103;DHT22;4094;49.948;11.574;2023-03-11T02:01:32;6.40;60.60
8103;DHT22;4094;49.948;11.574;2023-03-11T02:04:04;6.50;61.80
8103;DHT22;4094;49.948;11.574;2023-03-11T02:06:33;6.50;60.70
8103;DHT22;4094;49.948;11.574;2023-03-11T02:09:04;6.50;60.90
8103;DHT22;4094;49.948;11.574;2023-03-11T02:11:33;6.50;61.30
8103;DHT22;4094;49.948;11.574;2023-03-11T02:14:04;6.50;61.80
8103;DHT22;4094;49.948;11.574;2023-03-11T02:16:34;6.60;61.30
8103;DHT22;4094;49.948;11.574;2023-03-11T02:19:14;6.60;60.70
8103;DHT22;4094;49.948;11.574;2023-03-11T02:21:44;6.50;60.90
8103;DHT22;4094;49.948;11.574;2023-03-11T02:24:18;6.50;60.80
8103;DHT22;4094;49.948;11.574;2023-03-11T02:26:53;6.50;60.90
8103;DHT22;4094;49.948;11.574;2023-03-11T02:29:24;6.50;60.90
8103;DHT22;4094;49.948;11.574;2023-03-11T02:31:55;6.50;60.60
8103;DHT22;4094;49.948;11.574;2023-03-11T02:34:27;6.50;60.90
8103;DHT22;4094;49.948;11.574;2023-03-11T02:36:56;6.50;60.90
8103;DHT22;4094;49.948;11.574;2023-03-11T02:39:29;6.50;62.60
8103;DHT22;4094;49.948;11.574;2023-03-11T02:42:03;6.50;62.40
8103;DHT22;4094;49.948;11.574;2023-03-11T02:44:33;6.50;61.70
8103;DHT22;4094;49.948;11.574;2023-03-11T02:47:03;6.50;62.10
8103;DHT22;4094;49.948;11.574;2023-03-11T02:49:32;6.50;61.50
8103;DHT22;4094;49.948;11.574;2023-03-11T02:52:02;6.50;61.20
8103;DHT22;4094;49.948;11.574;2023-03-11T02:54:31;6.50;61.30
8103;DHT22;4094;49.948;11.574;2023-03-11T02:57:01;6.50;61.00
8103;DHT22;4094;49.948;11.574;2023-03-11T02:59:30;6.50;61.70
8103;DHT22;4094;49.948;11.574;2023-03-11T03:02:01;6.50;62.10
8103;DHT22;4094;49.948;11.574;2023-03-11T03:04:31;6.50;61.00
8103;DHT22;4094;49.948;11.574;2023-03-11T03:07:00;6.50;60.80
8103;DHT22;4094;49.948;11.574;2023-03-11T03:09:31;6.50;61.00
8103;DHT22;4094;49.948;11.574;2023-03-11T03:12:03;6.50;60.80
8103;DHT22;4094;49.948;11.574;2023-03-11T03:14:33;6.50;61.20
8103;DHT22;4094;49.948;11.574;2023-03-11T03:17:02;6.50;61.40
8103;DHT22;4094;49.948;11.574;2023-03-11T03:19:31;6.50;61.20
8103;DHT22;4094;49.948;11.574;2023-03-11T03:22:01;6.50;60.60
8103;DHT22;4094;49.948;11.574;2023-03-11T03:24:30;6.50;61.00
8103;DHT22;4094;49.948;11.574;2023-03-11T03:26:59;6.50;61.30
8103;DHT22;4094;49.948;11.574;2023-03-11T03:29:29;6.50;61.50
8103;DHT22;4094;49.948;11.574;2023-03-11T03:31:59;6.50;61.50
8103;DHT22;4094;49.948;11.574;2023-03-11T03:34:28;6.50;61.60
8103;DHT22;4094;49.948;11.574;2023-03-11T03:36:57;6.50;61.50
8103;DHT22;4094;49.948;11.574;2023-03-11T03:39:26;6.50;61.10
8103;DHT22;4094;49.948;11.574;2023-03-11T03:41:58;6.50;61.00
8103;DHT22;4094;49.948;11.574;2023-03-11T03:44:31;6.50;61.80
8103;DHT22;4094;49.948;11.574;2023-03-11T03:47:00;6.50;61.70
8103;DHT22;4094;49.948;11.574;2023-03-11T03:49:30;6.50;61.90
8103;DHT22;4094;49.948;11.574;2023-03-11T03:51:59;6.50;62.00
8103;DHT22;4094;49.948;11.574;2023-03-11T03:54:31;6.50;61.90
8103;DHT22;4094;49.948;11.574;2023-03-11T03:57:02;6.50;62.00
8103;DHT22;4094;49.948;11.574;2023-03-11T03:59:34;6.50;62.10
8103;DHT22;4094;49.948;11.574;2023-03-11T04:02:04;6.50;62.00
8103;DHT22;4094;49.948;11.574;2023-03-11T04:04:33;6.50;61.90
8103;DHT22;4094;49.948;11.574;2023-03-11T04:07:03;6.50;61.80
8103;DHT22;4094;49.948;11.574;2023-03-11T04:09:34;6.50;62.00
8103;DHT22;4094;49.948;11.574;2023-03-11T04:12:03;6.50;62.30
8103;DHT22;4094;49.948;11.574;2023-03-11T04:14:35;6.50;61.90
8103;DHT22;4094;49.948;11.574;2023-03-11T04:17:05;6.50;61.30
8103;DHT22;4094;49.948;11.574;2023-03-11T04:19:34;6.50;61.80
8103;DHT22;4094;49.948;11.574;2023-03-11T04:22:03;6.50;61.90
8103;DHT22;4094;49.948;11.574;2023-03-11T04:24:33;6.40;61.90
8103;DHT22;4094;49.948;11.574;2023-03-11T04:27:03;6.40;62.00
8103;DHT22;4094;49.948;11.574;2023-03-11T04:29:34;6.40;62.20
8103;DHT22;4094;49.948;11.574;2023-03-11T04:32:04;6.40;61.70
8103;DHT22;4094;49.948;11.574;2023-03-11T04:34:34;6.40;61.90
8103;DHT22;4094;49.948;11.574;2023-03-11T04:37:03;6.40;61.60
8103;DHT22;4094;49.948;11.574;2023-03-11T04:39:35;6.40;61.30
8103;DHT22;4094;49.948;11.574;2023-03-11T04:42:05;6.40;60.90
8103;DHT22;4094;49.948;11.574;2023-03-11T04:44:37;6.40;60.90
8103;DHT22;4094;49.948;11.574;2023-03-11T04:47:06;6.30;60.80
8103;DHT22;4094;49.948;11.574;2023-03-11T04:49:36;6.30;61.20
8103;DHT22;4094;49.948;11.574;2023-03-11T04:52:05;6.30;61.40
8103;DHT22;4094;49.948;11.574;2023-03-11T04:54:35;6.30;61.40
8103;DHT22;4094;49.948;11.574;2023-03-11T04:57:05;6.30;61.30
8103;DHT22;4094;49.948;11.574;2023-03-11T04:59:36;6.30;62.10
8103;DHT22;4094;49.948;11.574;2023-03-11T05:02:06;6.30;62.00
8103;DHT22;4094;49.948;11.574;2023-03-11T05:04:34;6.30;61.90
8103;DHT22;4094;49.948;11.574;2023-03-11T05:07:04;6.30;61.20
8103;DHT22;4094;49.948;11.574;2023-03-11T05:09:34;6.30;61.20
8103;DHT22;4094;49.948;11.574;2023-03-11T05:12:04;6.30;60.60
8103;DHT22;4094;49.948;11.574;2023-03-11T05:14:36;6.30;60.50
8103;DHT22;4094;49.948;11.574;2023-03-11T05:17:06;6.30;59.80
8103;DHT22;4094;49.948;11.574;2023-03-11T05:19:37;6.20;61.20
8103;DHT22;4094;49.948;11.574;2023-03-11T05:22:12;6.20;60.60
8103;DHT22;4094;49.948;11.574;2023-03-11T05:24:41;6.20;60.30
8103;DHT22;4094;49.948;11.574;2023-03-11T05:27:10;6.10;59.70
8103;DHT22;4094;49.948;11.574;2023-03-11T05:29:41;6.10;59.90
8103;DHT22;4094;49.948;11.574;2023-03-11T05:32:12;6.10;60.40
8103;DHT22;4094;49.948;11.574;2023-03-11T05:34:43;6.10;59.50
8103;DHT22;4094;49.948;11.574;2023-03-11T05:37:14;6.00;59.70
8103;DHT22;4094;49.948;11.574;2023-03-11T05:39:45;6.00;59.50
8103;DHT22;4094;49.948;11.574;2023-03-11T05:42:14;6.00;59.30
8103;DHT22;4094;49.948;11.574;2023-03-11T05:44:46;6.00;59.10
8103;DHT22;4094;49.948;11.574;2023-03-11T05:47:15;5.90;59.10
8103;DHT22;4094;49.948;11.574;2023-03-11T05:49:46;6.00;59.10
8103;DHT22;4094;49.948;11.574;2023-03-11T05:52:18;5.90;59.10
8103;DHT22;4094;49.948;11.574;2023-03-11T05:54:48;5.90;60.50
8103;DHT22;4094;49.948;11.574;2023-03-11T05:57:21;5.90;59.60
8103;DHT22;4094;49.948;11.574;2023-03-11T05:59:52;5.90;59.20
8103;DHT22;4094;49.948;11.574;2023-03-11T06:02:21;5.80;59.00
8103;DHT22;4094;49.948;11.574;2023-03-11T06:04:50;5.90;59.10
8103;DHT22;4094;49.948;11.574;2023-03-11T06:07:19;5.80;58.80
8103;DHT22;4094;49.948;11.574;2023-03-11T06:09:49;5.80;58.70
8103;DHT22;4094;49.948;11.574;2023-03-11T06:12:19;5.80;58.60
8103;DHT22;4094;49.948;11.574;2023-03-11T06:15:04;5.80;58.70
8103;DHT22;4094;49.948;11.574;2023-03-11T06:17:34;5.80;59.00
8103;DHT22;4094;49.948;11.574;2023-03-11T06:20:03;5.80;58.70
8103;DHT22;4094;49.948;11.574;2023-03-11T06:22:34;5.80;58.40
8103;DHT22;4094;49.948;11.574;2023-03-11T06:25:07;5.80;58.50
8103;DHT22;4094;49.948;11.574;2023-03-11T06:27:39;5.80;58.40
8103;DHT22;4094;49.948;11.574;2023-03-11T06:30:11;5.80;58.20
8103;DHT22;4094;49.948;11.574;2023-03-11T06:32:47;5.80;58.40
8103;DHT22;4094;49.948;11.574;2023-03-11T06:35:17;5.80;58.20
8103;DHT22;4094;49.948;11.574;2023-03-11T06:37:46;5.80;58.30
8103;DHT22;4094;49.948;11.574;2023-03-11T06:40:15;5.80;58.10
8103;DHT22;4094;49.948;11.574;2023-03-11T06:42:45;5.80;58.00
8103;DHT22;4094;49.948;11.574;2023-03-11T06:45:16;5.80;57.70
8103;DHT22;4094;49.948;11.574;2023-03-11T06:47:48;5.90;58.10
8103;DHT22;4094;49.948;11.574;2023-03-11T06:50:17;5.90;58.10
8103;DHT22;4094;49.948;11.574;2023-03-11T06:52:46;5.90;57.80
8103;DHT22;4094;49.948;11.574;2023-03-11T06:55:15;5.90;57.60
8103;DHT22;4094;49.948;11.574;2023-03-11T06:57:45;5.90;57.60
8103;DHT22;4094;49.948;11.574;2023-03-11T07:00:16;6.00;57.50
8103;DHT22;4094;49.948;11.574;2023-03-11T07:02:51;6.00;57.40
8103;DHT22;4094;49.948;11.574;2023-03-11T07:05:21;6.00;57.40
8103;DHT22;4094;49.948;11.574;2023-03-11T07:07:54;6.10;57.00
8103;DHT22;4094;49.948;11.574;2023-03-11T07:10:25;6.10;57.20
8103;DHT22;4094;49.948;11.574;2023-03-11T07:12:54;6.10;58.10
8103;DHT22;4094;49.948;11.574;2023-03-11T07:15:25;6.20;57.30
8103;DHT22;4094;49.948;11.574;2023-03-11T07:17:54;6.20;57.20
8103;DHT22;4094;49.948;11.574;2023-03-11T07:20:24;6.20;57.20
8103;DHT22;4094;49.948;11.574;2023-03-11T07:22:53;6.30;57.00
8103;DHT22;4094;49.948;11.574;2023-03-11T07:25:21;6.30;56.90
8103;DHT22;4094;49.948;11.574;2023-03-11T07:27:51;6.40;56.80
8103;DHT22;4094;49.948;11.574;2023-03-11T07:30:20;6.40;56.80
8103;DHT22;4094;49.948;11.574;2023-03-11T07:32:50;6.40;56.80
8103;DHT22;4094;49.948;11.574;2023-03-11T07:35:19;6.50;56.50
8103;DHT22;4094;49.948;11.574;2023-03-11T07:37:49;6.50;56.30
8103;DHT22;4094;49.948;11.574;2023-03-11T07:40:18;6.50;56.20
8103;DHT22;4094;49.948;11.574;2023-03-11T07:42:47;6.50;56.00
8103;DHT22;4094;49.948;11.574;2023-03-11T07:45:17;6.50;56.70
8103;DHT22;4094;49.948;11.574;2023-03-11T07:47:46;6.50;56.90
8103;DHT22;4094;49.948;11.574;2023-03-11T07:50:16;6.50;56.40
8103;DHT22;4094;49.948;11.574;2023-03-11T07:52:45;6.40;56.30
8103;DHT22;4094;49.948;11.574;2023-03-11T07:55:14;6.40;56.50
8103;DHT22;4094;49.948;11.574;2023-03-11T07:57:46;6.40;56.60
8103;DHT22;4094;49.948;11.574;2023-03-11T08:00:17;6.40;56.30
8103;DHT22;4094;49.948;11.574;2023-03-11T08:02:46;6.40;56.70
8103;DHT22;4094;49.948;11.574;2023-03-11T08:05:17;6.40;56.60
8103;DHT22;4094;49.948;11.574;2023-03-11T08:07:47;6.40;56.80
8103;DHT22;4094;49.948;11.574;2023-03-11T08:10:16;6.40;56.80
8103;DHT22;4094;49.948;11.574;2023-03-11T08:12:45;6.40;57.10
8103;DHT22;4094;49.948;11.574;2023-03-11T08:15:14;6.40;57.10
8103;DHT22;4094;49.948;11.574;2023-03-11T08:17:43;6.50;57.10
8103;DHT22;4094;49.948;11.574;2023-03-11T08:20:13;6.50;56.80
8103;DHT22;4094;49.948;11.574;2023-03-11T08:22:43;6.60;56.70
8103;DHT22;4094;49.948;11.574;2023-03-11T08:25:25;6.60;56.60
8103;DHT22;4094;49.948;11.574;2023-03-11T08:27:54;6.60;56.50
8103;DHT22;4094;49.948;11.574;2023-03-11T08:30:23;6.60;56.70
8103;DHT22;4094;49.948;11.574;2023-03-11T08:32:52;6.60;57.50
8103;DHT22;4094;49.948;11.574;2023-03-11T08:35:22;6.60;57.10
8103;DHT22;4094;49.948;11.574;2023-03-11T08:37:52;6.60;57.20
8103;DHT22;4094;49.948;11.574;2023-03-11T08:40:22;6.60;56.70
8103;DHT22;4094;49.948;11.574;2023-03-11T08:42:51;6.70;56.90
8103;DHT22;4094;49.948;11.574;2023-03-11T08:45:20;6.70;56.90
8103;DHT22;4094;49.948;11.574;2023-03-11T08:47:49;6.70;56.70
8103;DHT22;4094;49.948;11.574;2023-03-11T08:50:18;6.70;57.30
8103;DHT22;4094;49.948;11.574;2023-03-11T08:52:48;6.80;57.20
8103;DHT22;4094;49.948;11.574;2023-03-11T08:55:18;6.80;56.50
8103;DHT22;4094;49.948;11.574;2023-03-11T08:57:51;6.90;57.10
8103;DHT22;4094;49.948;11.574;2023-03-11T09:00:21;6.90;56.60
8103;DHT22;4094;49.948;11.574;2023-03-11T09:02:50;7.00;56.20
8103;DHT22;4094;49.948;11.574;2023-03-11T09:05:20;7.00;55.50
8103;DHT22;4094;49.948;11.574;2023-03-11T09:07:49;7.10;55.60
8103;DHT22;4094;49.948;11.574;2023-03-11T09:10:19;7.10;56.00
8103;DHT22;4094;49.948;11.574;2023-03-11T09:12:48;7.20;56.10
8103;DHT22;4094;49.948;11.574;2023-03-11T09:15:18;7.20;55.60
8103;DHT22;4094;49.948;11.574;2023-03-11T09:17:47;7.20;55.30
8103;DHT22;4094;49.948;11.574;2023-03-11T09:20:16;7.30;55.50
8103;DHT22;4094;49.948;11.574;2023-03-11T09:22:45;7.30;55.40
8103;DHT22;4094;49.948;11.574;2023-03-11T09:25:14;7.40;55.60
8103;DHT22;4094;49.948;11.574;2023-03-11T09:27:45;7.40;54.70
8103;DHT22;4094;49.948;11.574;2023-03-11T09:30:14;7.50;55.00
8103;DHT22;4094;49.948;11.574;2023-03-11T09:32:43;7.60;54.80
8103;DHT22;4094;49.948;11.574;2023-03-11T09:35:12;7.70;54.70
8103;DHT22;4094;49.948;11.574;2023-03-11T09:37:41;7.80;54.60
8103;DHT22;4094;49.948;11.574;2023-03-11T09:40:14;7.90;53.90
8103;DHT22;4094;49.948;11.574;2023-03-11T09:42:49;7.90;53.40
8103;DHT22;4094;49.948;11.574;2023-03-11T09:45:25;7.90;53.30
8103;DHT22;4094;49.948;11.574;2023-03-11T09:48:03;7.90;53.30
8103;DHT22;4094;49.948;11.574;2023-03-11T09:50:38;7.90;53.20
8103;DHT22;4094;49.948;11.574;2023-03-11T09:53:27;7.90;53.40
8103;DHT22;4094;49.948;11.574;2023-03-11T09:55:58;7.90;53.50
8103;DHT22;4094;49.948;11.574;2023-03-11T09:58:36;7.80;54.20
8103;DHT22;4094;49.948;11.574;2023-03-11T10:01:14;7.80;53.70
8103;DHT22;4094;49.948;11.574;2023-03-11T10:03:44;7.80;53.70
8103;DHT22;4094;49.948;11.574;2023-03-11T10:06:16;7.70;53.10
8103;DHT22;4094;49.948;11.574;2023-03-11T10:08:53;7.70;53.40
8103;DHT22;4094;49.948;11.574;2023-03-11T10:11:41;7.70;53.40
8103;DHT22;4094;49.948;11.574;2023-03-11T10:14:25;7.60;53.60
8103;DHT22;4094;49.948;11.574;2023-03-11T10:17:03;7.60;53.20
8103;DHT22;4094;49.948;11.574;2023-03-11T10:19:41;7.50;53.10
8103;DHT22;4094;49.948;11.574;2023-03-11T10:22:17;7.50;52.90
8103;DHT22;4094;49.948;11.574;2023-03-11T10:24:56;7.40;52.90
8103;DHT22;4094;49.948;11.574;2023-03-11T10:27:29;7.40;53.00
8103;DHT22;4094;49.948;11.574;2023-03-11T10:30:08;7.30;52.70
8103;DHT22;4094;49.948;11.574;2023-03-11T10:32:41;7.30;53.00
8103;DHT22;4094;49.948;11.574;2023-03-11T10:35:16;7.30;53.10
8103;DHT22;4094;49.948;11.574;2023-03-11T10:37:51;7.30;52.70
8103;DHT22;4094;49.948;11.574;2023-03-11T10:40:29;7.40;53.00
8103;DHT22;4094;49.948;11.574;2023-03-11T10:43:02;7.40;52.90
8103;DHT22;4094;49.948;11.574;2023-03-11T10:45:37;7.40;52.90
8103;DHT22;4094;49.948;11.574;2023-03-11T10:48:09;7.40;52.80
8103;DHT22;4094;49.948;11.574;2023-03-11T10:50:46;7.40;52.80
8103;DHT22;4094;49.948;11.574;2023-03-11T10:53:18;7.40;52.70
8103;DHT22;4094;49.948;11.574;2023-03-11T10:55:49;7.40;52.90
8103;DHT22;4094;49.948;11.574;2023-03-11T10:58:20;7.40;52.70
8103;DHT22;4094;49.948;11.574;2023-03-11T11:01:04;7.40;52.30
8103;DHT22;4094;49.948;11.574;2023-03-11T11:03:35;7.40;52.90
8103;DHT22;4094;49.948;11.574;2023-03-11T11:06:19;7.30;52.40
8103;DHT22;4094;49.948;11.574;2023-03-11T11:08:49;7.30;52.40
8103;DHT22;4094;49.948;11.574;2023-03-11T11:11:31;7.30;52.30
8103;DHT22;4094;49.948;11.574;2023-03-11T11:14:00;7.30;52.00
8103;DHT22;4094;49.948;11.574;2023-03-11T11:16:32;7.30;51.90
8103;DHT22;4094;49.948;11.574;2023-03-11T11:19:04;7.30;52.10
8103;DHT22;4094;49.948;11.574;2023-03-11T11:21:37;7.30;52.40
8103;DHT22;4094;49.948;11.574;2023-03-11T11:24:16;7.40;52.80
8103;DHT22;4094;49.948;11.574;2023-03-11T11:27:04;7.40;52.00
8103;DHT22;4094;49.948;11.574;2023-03-11T11:29:33;7.40;52.80
8103;DHT22;4094;49.948;11.574;2023-03-11T11:32:20;7.40;51.60
8103;DHT22;4094;49.948;11.574;2023-03-11T11:34:53;7.40;51.30
8103;DHT22;4094;49.948;11.574;2023-03-11T11:37:24;7.30;51.80
8103;DHT22;4094;49.948;11.574;2023-03-11T11:40:00;7.30;51.90
8103;DHT22;4094;49.948;11.574;2023-03-11T11:42:40;7.20;53.40
8103;DHT22;4094;49.948;11.574;2023-03-11T11:45:15;7.20;53.00
8103;DHT22;4094;49.948;11.574;2023-03-11T11:47:47;7.30;52.80
8103;DHT22;4094;49.948;11.574;2023-03-11T11:50:25;7.30;52.60
8103;DHT22;4094;49.948;11.574;2023-03-11T11:53:03;7.30;52.50
8103;DHT22;4094;49.948;11.574;2023-03-11T11:55:34;7.50;53.30
8103;DHT22;4094;49.948;11.574;2023-03-11T11:58:08;8.00;55.00
8103;DHT22;4094;49.948;11.574;2023-03-11T12:00:45;8.70;54.90
8103;DHT22;4094;49.948;11.574;2023-03-11T12:03:36;9.50;54.10
8103;DHT22;4094;49.948;11.574;2023-03-11T12:06:17;10.30;53.40
8103;DHT22;4094;49.948;11.574;2023-03-11T12:08:58;10.90;51.50
8103;DHT22;4094;49.948;11.574;2023-03-11T12:11:36;11.20;50.00
8103;DHT22;4094;49.948;11.574;2023-03-11T12:14:14;11.30;48.80
8103;DHT22;4094;49.948;11.574;2023-03-11T12:16:51;11.30;47.40
8103;DHT22;4094;49.948;11.574;2023-03-11T12:19:37;11.20;47.10
8103;DHT22;4094;49.948;11.574;2023-03-11T12:22:47;10.90;46.60
8103;DHT22;4094;49.948;11.574;2023-03-11T12:25:28;10.70;46.80
8103;DHT22;4094;49.948;11.574;2023-03-11T12:28:04;10.40;46.80
8103;DHT22;4094;49.948;11.574;2023-03-11T12:30:41;10.20;46.90
8103;DHT22;4094;49.948;11.574;2023-03-11T12:33:16;9.90;46.90
8103;DHT22;4094;49.948;11.574;2023-03-11T12:35:52;9.70;47.30
8103;DHT22;4094;49.948;11.574;2023-03-11T12:38:27;9.50;48.00
8103;DHT22;4094;49.948;11.574;2023-03-11T12:41:02;9.40;48.00
8103;DHT22;4094;49.948;11.574;2023-03-11T12:47:01;9.10;48.10
8103;DHT22;4094;49.948;11.574;2023-03-11T12:49:32;9.00;49.00
8103;DHT22;4094;49.948;11.574;2023-03-11T12:52:16;8.90;48.10
8103;DHT22;4094;49.948;11.574;2023-03-11T12:54:47;8.90;48.30
8103;DHT22;4094;49.948;11.574;2023-03-11T12:57:30;8.80;48.20
8103;DHT22;4094;49.948;11.574;2023-03-11T13:00:12;8.70;48.40
8103;DHT22;4094;49.948;11.574;2023-03-11T13:02:57;8.60;48.40
8103;DHT22;4094;49.948;11.574;2023-03-11T13:05:49;8.60;48.20
8103;DHT22;4094;49.948;11.574;2023-03-11T13:08:22;8.50;48.30
8103;DHT22;4094;49.948;11.574;2023-03-11T13:10:53;8.50;48.50
8103;DHT22;4094;49.948;11.574;2023-03-11T13:13:37;8.40;48.80
8103;DHT22;4094;49.948;11.574;2023-03-11T13:16:35;8.40;48.80
8103;DHT22;4094;49.948;11.574;2023-03-11T13:25:29;8.40;48.40
8103;DHT22;4094;49.948;11.574;2023-03-11T13:28:16;8.50;48.60
8103;DHT22;4094;49.948;11.574;2023-03-11T13:30:51;8.40;48.80
8103;DHT22;4094;49.948;11.574;2023-03-11T13:33:35;8.40;49.10
8103;DHT22;4094;49.948;11.574;2023-03-11T13:36:17;8.40;48.60
8103;DHT22;4094;49.948;11.574;2023-03-11T13:39:18;8.40;48.80
8103;DHT22;4094;49.948;11.574;2023-03-11T13:41:51;8.40;49.40
8103;DHT22;4094;49.948;11.574;2023-03-11T13:44:28;8.40;49.00
8103;DHT22;4094;49.948;11.574;2023-03-11T13:47:01;8.40;48.20
8103;DHT22;4094;49.948;11.574;2023-03-11T13:49:35;8.40;48.40
8103;DHT22;4094;49.948;11.574;2023-03-11T13:52:08;8.40;48.10
8103;DHT22;4094;49.948;11.574;2023-03-11T13:54:46;8.40;47.90
8103;DHT22;4094;49.948;11.574;2023-03-11T13:57:23;8.30;47.90
8103;DHT22;4094;49.948;11.574;2023-03-11T13:59:54;8.30;48.30
8103;DHT22;4094;49.948;11.574;2023-03-11T14:02:24;8.30;48.30
8103;DHT22;4094;49.948;11.574;2023-03-11T14:04:56;8.30;48.60
8103;DHT22;4094;49.948;11.574;2023-03-11T14:07:28;8.30;48.60
8103;DHT22;4094;49.948;11.574;2023-03-11T14:10:31;8.30;47.70
8103;DHT22;4094;49.948;11.574;2023-03-11T14:13:12;8.30;47.60
8103;DHT22;4094;49.948;11.574;2023-03-11T14:15:47;8.20;47.60
8103;DHT22;4094;49.948;11.574;2023-03-11T14:18:28;8.20;47.50
8103;DHT22;4094;49.948;11.574;2023-03-11T14:20:58;8.20;47.30
8103;DHT22;4094;49.948;11.574;2023-03-11T14:23:29;8.20;47.90
8103;DHT22;4094;49.948;11.574;2023-03-11T14:26:02;8.20;47.30
8103;DHT22;4094;49.948;11.574;2023-03-11T14:28:37;8.10;47.40
8103;DHT22;4094;49.948;11.574;2023-03-11T14:31:23;8.10;47.40
8103;DHT22;4094;49.948;11.574;2023-03-11T14:33:57;8.10;47.60
8103;DHT22;4094;49.948;11.574;2023-03-11T14:36:39;8.10;47.60
8103;DHT22;4094;49.948;11.574;2023-03-11T14:39:28;8.10;48.00
8103;DHT22;4094;49.948;11.574;2023-03-11T14:42:03;8.10;48.30
8103;DHT22;4094;49.948;11.574;2023-03-11T14:44:37;8.10;48.80
8103;DHT22;4094;49.948;11.574;2023-03-11T14:47:10;8.10;48.90
8103;DHT22;4094;49.948;11.574;2023-03-11T14:49:45;8.10;49.40
8103;DHT22;4094;49.948;11.574;2023-03-11T14:52:18;8.10;49.60
8103;DHT22;4094;49.948;11.574;2023-03-11T14:54:51;8.00;49.20
8103;DHT22;4094;49.948;11.574;2023-03-11T14:57:24;8.00;49.40
8103;DHT22;4094;49.948;11.574;2023-03-11T14:59:57;8.00;49.80
8103;DHT22;4094;49.948;11.574;2023-03-11T15:02:37;8.00;49.50
8103;DHT22;4094;49.948;11.574;2023-03-11T15:05:13;8.00;49.50
8103;DHT22;4094;49.948;11.574;2023-03-11T15:07:44;8.00;50.10
8103;DHT22;4094;49.948;11.574;2023-03-11T15:10:14;8.00;50.50
8103;DHT22;4094;49.948;11.574;2023-03-11T15:12:43;8.00;50.10
8103;DHT22;4094;49.948;11.574;2023-03-11T15:15:23;8.00;49.40
8103;DHT22;4094;49.948;11.574;2023-03-11T15:17:53;8.00;49.40
8103;DHT22;4094;49.948;11.574;2023-03-11T15:20:25;8.00;49.30
8103;DHT22;4094;49.948;11.574;2023-03-11T15:22:55;8.00;49.10
8103;DHT22;4094;49.948;11.574;2023-03-11T15:25:29;8.00;48.90
8103;DHT22;4094;49.948;11.574;2023-03-11T15:28:21;8.00;49.00
8103;DHT22;4094;49.948;11.574;2023-03-11T15:31:16;8.00;48.90
8103;DHT22;4094;49.948;11.574;2023-03-11T15:33:53;8.00;48.70
8103;DHT22;4094;49.948;11.574;2023-03-11T15:36:28;8.00;48.70
8103;DHT22;4094;49.948;11.574;2023-03-11T15:39:15;8.00;48.80
8103;DHT22;4094;49.948;11.574;2023-03-11T15:41:46;8.00;48.40
8103;DHT22;4094;49.948;11.574;2023-03-11T15:44:24;8.00;49.40
8103;DHT22;4094;49.948;11.574;2023-03-11T15:46:57;8.00;48.20
8103;DHT22;4094;49.948;11.574;2023-03-11T15:49:27;8.00;47.80
8103;DHT22;4094;49.948;11.574;2023-03-11T15:51:57;8.00;47.50
8103;DHT22;4094;49.948;11.574;2023-03-11T15:54:27;7.90;47.60
8103;DHT22;4094;49.948;11.574;2023-03-11T15:56:57;7.90;47.60
8103;DHT22;4094;49.948;11.574;2023-03-11T15:59:28;7.90;47.60
8103;DHT22;4094;49.948;11.574;2023-03-11T16:01:59;7.90;47.60
8103;DHT22;4094;49.948;11.574;2023-03-11T16:04:28;7.90;47.40
8103;DHT22;4094;49.948;11.574;2023-03-11T16:06:57;7.80;47.70
8103;DHT22;4094;49.948;11.574;2023-03-11T16:09:35;7.80;47.80
8103;DHT22;4094;49.948;11.574;2023-03-11T16:12:13;7.80;47.70
8103;DHT22;4094;49.948;11.574;2023-03-11T16:14:43;7.80;47.70
8103;DHT22;4094;49.948;11.574;2023-03-11T16:17:14;7.70;47.80
8103;DHT22;4094;49.948;11.574;2023-03-11T16:19:45;7.70;47.50
8103;DHT22;4094;49.948;11.574;2023-03-11T16:22:17;7.70;47.60
8103;DHT22;4094;49.948;11.574;2023-03-11T16:24:49;7.70;47.50
8103;DHT22;4094;49.948;11.574;2023-03-11T16:27:19;7.70;47.50
8103;DHT22;4094;49.948;11.574;2023-03-11T16:29:48;7.60;47.50
8103;DHT22;4094;49.948;11.574;2023-03-11T16:32:19;7.60;47.40
8103;DHT22;4094;49.948;11.574;2023-03-11T16:34:48;7.60;47.60
8103;DHT22;4094;49.948;11.574;2023-03-11T16:37:19;7.60;48.00
8103;DHT22;4094;49.948;11.574;2023-03-11T16:39:49;7.50;47.70
8103;DHT22;4094;49.948;11.574;2023-03-11T16:42:21;7.50;47.70
8103;DHT22;4094;49.948;11.574;2023-03-11T16:44:50;7.50;47.70
8103;DHT22;4094;49.948;11.574;2023-03-11T16:47:21;7.50;47.80